Time;durP1;ratioP1;P1;durP2;ratioP2;P2;SDS_P1;SDS_P2;PMS_P1;PMS_P2;Temp;Humidity;BMP_temperature;BMP_pressure;BME280_temperature;BME280_humidity;BME280_pressure;Samples;Min_cycle;Max_cycle;Signal;HPM_P1;HPM_P2
2022/07/25 00:00:26;;;;;;;8.20;5.75;;;;;;;34.72;33.13;101121.16;5113042;28;20483;-77
2022/07/25 00:02:52;;;;;;;7.50;5.70;;;;;;;34.36;33.51;101114.13;5094682;28;20031;-77
2022/07/25 00:05:17;;;;;;;9.07;6.25;;;;;;;34.74;32.60;101116.44;5112038;28;20110;-77
2022/07/25 00:07:42;;;;;;;10.10;6.22;;;;;;;34.58;32.87;101107.25;5113156;28;20028;-77
2022/07/25 00:10:09;;;;;;;11.57;5.93;;;;;;;34.64;32.88;101112.00;5094455;28;20039;-77
2022/07/25 00:12:34;;;;;;;6.05;5.22;;;;;;;34.67;32.39;101102.69;5112056;28;20054;-77
2022/07/25 00:14:59;;;;;;;9.52;5.65;;;;;;;34.37;32.99;101093.31;5094376;28;20479;-77
2022/07/25 00:17:25;;;;;;;7.25;5.40;;;;;;;34.80;32.26;101094.03;5112911;28;20019;-77
2022/07/25 00:19:50;;;;;;;7.88;5.53;;;;;;;34.61;32.54;101087.94;5093834;28;20020;-77
2022/07/25 00:22:16;;;;;;;9.25;5.63;;;;;;;34.73;32.06;101080.28;5111998;28;20020;-78
2022/07/25 00:24:41;;;;;;;7.25;5.10;;;;;;;34.74;32.20;101078.44;5094332;28;20028;-77
2022/07/25 00:27:07;;;;;;;9.80;5.65;;;;;;;34.93;31.51;101078.13;5093691;28;20026;-77
2022/07/25 00:29:32;;;;;;;12.82;5.57;;;;;;;34.69;31.83;101076.22;5112456;28;20110;-77
2022/07/25 00:31:57;;;;;;;9.85;5.65;;;;;;;34.69;32.04;101075.38;5094341;28;20042;-77
2022/07/25 00:34:23;;;;;;;8.30;5.63;;;;;;;34.72;31.53;101069.59;5111752;28;20467;-77
2022/07/25 00:36:48;;;;;;;8.15;5.63;;;;;;;35.17;30.62;101063.69;5112299;28;20028;-77
2022/07/25 00:39:13;;;;;;;6.80;4.78;;;;;;;34.58;32.26;101058.41;5112495;28;20387;-77
2022/07/25 00:41:39;;;;;;;11.60;5.57;;;;;;;34.93;31.01;101061.84;5093450;28;20028;-77
2022/07/25 00:44:05;;;;;;;9.65;5.75;;;;;;;34.40;32.11;101065.84;5093947;28;20051;-77
2022/07/25 00:46:30;;;;;;;7.10;5.30;;;;;;;34.66;31.87;101068.41;5094146;28;20471;-77
2022/07/25 00:48:55;;;;;;;7.78;5.18;;;;;;;35.07;30.94;101065.72;5093336;28;20030;-77
2022/07/25 00:51:21;;;;;;;6.82;5.43;;;;;;;34.39;32.28;101058.69;5094210;28;20433;-77
2022/07/25 00:53:47;;;;;;;11.02;5.95;;;;;;;34.76;31.95;101054.66;5093204;28;20028;-77
2022/07/25 00:56:13;;;;;;;8.52;5.28;;;;;;;34.84;31.62;101038.41;5093816;28;20023;-77
2022/07/25 00:58:38;;;;;;;7.15;5.35;;;;;;;34.64;32.03;101046.88;5094025;28;20118;-77
2022/07/25 01:01:04;;;;;;;6.80;5.10;;;;;;;34.62;32.17;101045.34;5093049;28;20055;-77
2022/07/25 01:03:29;;;;;;;7.63;4.95;;;;;;;34.13;33.25;101037.97;5093871;28;20023;-77
2022/07/25 01:05:55;;;;;;;6.90;5.15;;;;;;;34.14;33.21;101036.91;5093797;28;20031;-77
2022/07/25 01:08:21;;;;;;;8.63;4.90;;;;;;;34.17;33.22;101028.47;5111535;28;20031;-77
2022/07/25 01:10:47;;;;;;;9.70;5.57;;;;;;;34.78;31.76;101017.38;5093931;28;20118;-77
2022/07/25 01:13:13;;;;;;;7.95;5.47;;;;;;;34.54;32.73;101019.06;5093823;28;20031;-77
2022/07/25 01:15:39;;;;;;;9.43;4.72;;;;;;;34.60;32.42;101023.81;5093027;28;20073;-77
2022/07/25 01:18:05;;;;;;;7.75;4.75;;;;;;;34.66;32.52;101023.16;5093762;28;20023;-77
2022/07/25 01:20:31;;;;;;;9.80;5.10;;;;;;;34.54;32.59;101021.78;5112194;28;20100;-76
2022/07/25 01:22:58;;;;;;;7.15;5.13;;;;;;;34.43;32.52;101022.09;5093079;28;20471;-77
2022/07/25 01:25:24;;;;;;;7.93;4.90;;;;;;;33.95;33.14;101013.66;5093716;28;20027;-77
2022/07/25 01:27:50;;;;;;;6.88;4.85;;;;;;;34.29;33.14;101010.91;5093958;28;20118;-77
2022/07/25 01:30:16;;;;;;;9.75;5.10;;;;;;;34.17;33.41;101017.63;5092815;28;20564;-77
2022/07/25 01:32:43;;;;;;;8.20;5.07;;;;;;;34.33;33.21;101011.41;5112090;28;20023;-77
2022/07/25 01:35:09;;;;;;;8.00;4.93;;;;;;;34.43;33.18;101006.69;5113361;28;20501;-77
2022/07/25 01:37:34;;;;;;;6.85;4.93;;;;;;;34.04;34.56;100990.97;5096834;28;20360;-77
2022/07/25 01:40:01;;;;;;;6.05;4.97;;;;;;;33.64;34.93;100995.22;5115752;28;20030;-77
2022/07/25 01:42:27;;;;;;;7.22;5.28;;;;;;;34.20;34.31;100984.75;5115955;28;20066;-77
2022/07/25 01:44:52;;;;;;;7.47;5.50;;;;;;;34.19;33.95;100982.22;5096589;28;20475;-77
2022/07/25 01:47:18;;;;;;;6.97;5.32;;;;;;;34.38;33.25;100992.75;5097099;28;20036;-77
2022/07/25 01:49:43;;;;;;;10.07;6.30;;;;;;;34.21;33.78;100980.16;5115477;28;20477;-77
2022/07/25 01:52:10;;;;;;;9.80;6.53;;;;;;;34.71;32.77;100986.50;5115290;28;20023;-77
2022/07/25 01:54:35;;;;;;;14.02;8.20;;;;;;;34.16;33.62;100986.94;5097455;28;20031;-77
2022/07/25 01:57:01;;;;;;;9.20;6.82;;;;;;;34.32;33.75;100978.00;5096424;28;20496;-77
2022/07/25 01:59:26;;;;;;;8.23;6.75;;;;;;;34.42;33.21;100980.56;5097040;28;20199;-77
2022/07/25 02:01:51;;;;;;;10.40;8.05;;;;;;;34.33;33.36;100968.00;5097100;28;20020;-77
2022/07/25 02:04:17;;;;;;;11.13;7.60;;;;;;;34.13;34.21;100957.44;5114742;28;20535;-77
2022/07/25 02:06:42;;;;;;;12.50;7.38;;;;;;;32.84;35.75;100961.09;5115170;28;20534;-77
2022/07/25 02:09:07;;;;;;;14.20;8.50;;;;;;;33.52;34.58;100943.19;5096995;28;20081;-77
2022/07/25 02:11:34;;;;;;;12.00;7.82;;;;;;;32.61;36.06;100955.28;5096158;28;20076;-76
2022/07/25 02:13:59;;;;;;;10.75;7.28;;;;;;;33.31;35.30;100947.16;5096784;28;20034;-77
2022/07/25 02:16:24;;;;;;;11.95;6.88;;;;;;;33.73;34.69;100944.59;5114828;28;20421;-77
2022/07/25 02:18:50;;;;;;;11.00;7.30;;;;;;;33.61;34.60;100944.91;5096172;28;20027;-77
2022/07/25 02:21:15;;;;;;;11.55;7.85;;;;;;;33.62;34.54;100938.50;5114916;28;20062;-77
2022/07/25 02:23:42;;;;;;;9.93;8.30;;;;;;;33.84;33.75;100938.94;5096475;28;20119;-77
2022/07/25 02:26:07;;;;;;;9.18;8.00;;;;;;;33.60;34.51;100935.09;5114103;28;20035;-77
2022/07/25 02:28:33;;;;;;;12.10;8.27;;;;;;;34.03;33.78;100936.94;5114658;28;20015;-77
2022/07/25 02:30:58;;;;;;;12.30;8.02;;;;;;;34.07;33.35;100936.41;5096471;28;20034;-77
2022/07/25 02:33:23;;;;;;;13.75;9.27;;;;;;;33.45;34.56;100931.31;5095900;28;20031;-77
2022/07/25 02:35:49;;;;;;;14.10;10.00;;;;;;;32.84;35.66;100923.19;5096483;28;20026;-77
2022/07/25 02:38:18;;;;;;;15.32;9.77;;;;;;;33.33;35.03;100928.03;5096372;28;20409;-77
2022/07/25 02:40:45;;;;;;;11.77;9.48;;;;;;;33.78;34.29;100920.63;5095645;28;20020;-77
2022/07/25 02:43:11;;;;;;;15.38;9.63;;;;;;;33.79;34.34;100919.59;5092398;28;20039;-77
2022/07/25 02:45:36;;;;;;;13.70;9.57;;;;;;;33.81;34.23;100921.13;5092462;28;20411;-77
2022/07/25 02:48:01;;;;;;;16.80;9.43;;;;;;;33.54;34.50;100919.50;5092227;28;20069;-77
2022/07/25 02:50:27;;;;;;;13.00;9.90;;;;;;;33.35;34.38;100917.06;5093977;28;20064;-77
2022/07/25 02:52:52;;;;;;;10.82;8.52;;;;;;;33.75;33.57;100910.91;5092499;28;20024;-77
2022/07/25 02:55:18;;;;;;;12.88;8.80;;;;;;;33.39;35.06;100910.31;5092129;28;20122;-76
2022/07/25 02:57:43;;;;;;;10.98;8.88;;;;;;;33.71;33.49;100911.44;5092441;28;20024;-77
2022/07/25 03:00:09;;;;;;;11.18;8.40;;;;;;;33.29;33.38;100911.28;5093719;28;20028;-77
2022/07/25 03:02:34;;;;;;;9.57;7.65;;;;;;;33.43;33.73;100907.09;5091608;28;20028;-77
2022/07/25 03:05:00;;;;;;;11.02;8.13;;;;;;;33.69;33.41;100906.19;5092513;28;20107;-77
2022/07/25 03:07:25;;;;;;;10.00;7.97;;;;;;;33.77;33.50;100908.06;5092926;28;20464;-77
2022/07/25 03:09:50;;;;;;;11.63;8.40;;;;;;;34.31;32.02;100910.38;5093705;28;20031;-77
2022/07/25 03:12:16;;;;;;;11.13;7.63;;;;;;;34.12;32.19;100906.09;5092057;28;20028;-77
2022/07/25 03:14:41;;;;;;;9.82;7.50;;;;;;;33.45;34.06;100909.66;5091657;28;20023;-77
2022/07/25 03:17:07;;;;;;;10.43;7.35;;;;;;;33.54;33.86;100902.38;5092216;28;20472;-76
2022/07/25 03:19:32;;;;;;;9.95;7.85;;;;;;;33.42;33.86;100908.09;5092168;28;20031;-77
2022/07/25 03:21:57;;;;;;;12.25;7.93;;;;;;;32.94;34.62;100912.25;5091266;28;20062;-76
2022/07/25 03:24:23;;;;;;;10.85;7.97;;;;;;;33.58;33.74;100904.63;5091919;28;20525;-77
2022/07/25 03:26:49;;;;;;;10.68;7.65;;;;;;;33.36;34.38;100911.50;5093095;28;20392;-77
2022/07/25 03:29:14;;;;;;;9.73;8.45;;;;;;;33.58;34.01;100912.75;5091466;28;20024;-77
2022/07/25 03:31:39;;;;;;;12.70;8.13;;;;;;;33.36;34.36;100903.38;5092108;28;20084;-77
2022/07/25 03:34:05;;;;;;;10.77;8.25;;;;;;;33.81;33.74;100899.47;5093285;28;20031;-77
2022/07/25 03:36:30;;;;;;;10.90;8.00;;;;;;;33.70;34.02;100904.31;5091170;28;20490;-77
2022/07/25 03:38:56;;;;;;;9.77;8.02;;;;;;;33.44;34.72;100911.53;5091549;28;20101;-77
2022/07/25 03:41:22;;;;;;;9.82;7.75;;;;;;;33.06;35.38;100915.56;5092062;28;20020;-77
2022/07/25 03:43:47;;;;;;;10.85;8.55;;;;;;;32.09;36.91;100918.97;5090749;28;20143;-76
2022/07/25 03:46:13;;;;;;;9.90;8.02;;;;;;;32.60;35.93;100915.72;5092822;28;20032;-77
2022/07/25 03:48:38;;;;;;;12.30;8.20;;;;;;;32.25;35.54;100912.91;5091654;28;20023;-77
2022/07/25 03:51:04;;;;;;;13.88;8.68;;;;;;;32.67;35.71;100916.78;5091021;28;20040;-77
2022/07/25 03:53:29;;;;;;;9.90;7.18;;;;;;;33.43;34.37;100906.28;5091432;28;20520;-77
2022/07/25 03:55:54;;;;;;;9.98;7.53;;;;;;;33.53;33.82;100898.84;5091660;28;20515;-77
2022/07/25 03:58:19;;;;;;;8.63;6.25;;;;;;;33.56;34.13;100906.63;5090223;28;20123;-77
2022/07/25 04:00:47;;;;;;;9.52;6.30;;;;;;;33.05;33.93;100913.84;5091724;28;20071;-78
2022/07/25 04:03:13;;;;;;;10.25;6.65;;;;;;;33.01;34.78;100917.88;5092717;28;20062;-77
2022/07/25 04:05:39;;;;;;;12.63;6.93;;;;;;;32.79;34.68;100915.53;5090512;28;20059;-78
2022/07/25 04:08:04;;;;;;;8.05;6.07;;;;;;;33.75;33.83;100910.09;5092679;28;20024;-77
2022/07/25 04:10:30;;;;;;;14.68;6.32;;;;;;;33.36;34.11;100908.78;5091309;28;20417;-77
2022/07/25 04:12:55;;;;;;;9.73;6.00;;;;;;;33.52;33.55;100909.84;5091005;28;20119;-77
2022/07/25 04:15:20;;;;;;;8.68;5.57;;;;;;;33.46;33.86;100903.22;5091321;28;20020;-78
2022/07/25 04:17:46;;;;;;;9.40;6.18;;;;;;;33.44;33.57;100886.28;5090647;28;20460;-78
2022/07/25 04:20:11;;;;;;;8.20;5.00;;;;;;;33.31;34.17;100898.41;5092564;28;20049;-77
2022/07/25 04:22:36;;;;;;;8.00;5.57;;;;;;;32.83;34.26;100899.84;5092740;28;20525;-77
2022/07/25 04:25:03;;;;;;;8.20;5.25;;;;;;;33.12;33.93;100888.66;5090382;28;20063;-78
2022/07/25 04:27:28;;;;;;;6.75;5.10;;;;;;;33.21;34.14;100892.25;5092294;28;20035;-77
2022/07/25 04:29:53;;;;;;;8.68;5.10;;;;;;;32.80;34.33;100889.34;5091034;28;20020;-77
2022/07/25 04:32:19;;;;;;;6.05;5.10;;;;;;;32.71;34.03;100885.72;5090103;28;20155;-78
2022/07/25 04:34:44;;;;;;;6.55;4.53;;;;;;;33.18;33.04;100887.19;5091089;28;20023;-77
2022/07/25 04:37:11;;;;;;;8.57;4.22;;;;;;;32.68;33.54;100886.00;5092090;28;20387;-77
2022/07/25 04:39:36;;;;;;;9.95;4.00;;;;;;;31.36;35.48;100890.13;5090367;28;20125;-77
2022/07/25 04:42:02;;;;;;;6.13;4.25;;;;;;;32.16;34.39;100888.66;5092050;28;20474;-77
2022/07/25 04:44:27;;;;;;;7.30;4.03;;;;;;;31.69;34.78;100892.41;5094435;28;20039;-77
2022/07/25 04:46:52;;;;;;;4.88;3.75;;;;;;;30.80;35.58;100889.19;5093565;28;20468;-78
2022/07/25 04:49:18;;;;;;;4.35;3.28;;;;;;;31.57;34.47;100881.78;5094435;28;20039;-78
2022/07/25 04:51:43;;;;;;;4.53;3.30;;;;;;;32.53;32.64;100883.03;5094238;28;20020;-77
2022/07/25 04:54:08;;;;;;;4.55;3.30;;;;;;;33.04;31.85;100890.47;5093218;28;20077;-78
2022/07/25 04:56:34;;;;;;;3.47;3.17;;;;;;;31.64;33.63;100898.25;5094224;28;20465;-77
2022/07/25 04:59:00;;;;;;;4.97;3.03;;;;;;;32.22;33.51;100891.59;5094086;28;20024;-76
2022/07/25 05:01:25;;;;;;;4.53;3.00;;;;;;;31.89;34.26;100891.25;5093427;28;20023;-78
2022/07/25 05:03:50;;;;;;;5.22;2.95;;;;;;;32.23;33.38;100887.91;5094092;28;20050;-77
2022/07/25 05:06:17;;;;;;;5.82;2.13;;;;;;;33.37;31.62;100885.25;5112079;28;20049;-77
2022/07/25 05:08:43;;;;;;;4.43;2.80;;;;;;;32.41;33.16;100884.28;5094337;28;20498;-77
2022/07/25 05:11:08;;;;;;;2.67;2.42;;;;;;;32.33;32.93;100884.22;5116576;28;20024;-78
2022/07/25 05:13:34;;;;;;;2.05;1.83;;;;;;;31.91;33.48;100883.00;5097937;28;20039;-78
2022/07/25 05:15:59;;;;;;;3.85;2.17;;;;;;;30.03;36.71;100885.56;5115745;28;20027;-77
2022/07/25 05:18:24;;;;;;;2.47;1.90;;;;;;;30.43;36.22;100882.72;5098051;28;20090;-77
2022/07/25 05:20:50;;;;;;;2.65;1.70;;;;;;;31.00;34.75;100891.84;5116341;28;20015;-77
2022/07/25 05:23:15;;;;;;;1.85;1.55;;;;;;;31.04;35.42;100895.97;5097148;28;20532;-78
2022/07/25 05:25:41;;;;;;;3.78;1.90;;;;;;;31.30;34.25;100879.94;5097504;28;20043;-77
2022/07/25 05:28:06;;;;;;;5.45;1.60;;;;;;;30.60;35.02;100889.25;5097087;28;20030;-77
2022/07/25 05:30:31;;;;;;;2.90;1.38;;;;;;;30.45;35.48;100888.00;5116077;28;20132;-77
2022/07/25 05:32:57;;;;;;;1.80;1.70;;;;;;;31.39;34.40;100891.69;5097863;28;20110;-77
2022/07/25 05:35:22;;;;;;;4.43;1.50;;;;;;;31.08;33.99;100892.81;5096847;28;20042;-77
2022/07/25 05:37:48;;;;;;;1.35;1.25;;;;;;;30.83;34.55;100902.41;5115805;28;20067;-77
2022/07/25 05:40:13;;;;;;;2.67;1.50;;;;;;;30.83;34.68;100897.00;5097500;28;20027;-77
2022/07/25 05:42:38;;;;;;;1.55;1.27;;;;;;;30.89;34.25;100893.72;5115004;28;20047;-77
2022/07/25 05:45:04;;;;;;;1.65;1.40;;;;;;;32.16;32.70;100891.38;5115927;28;20023;-77
2022/07/25 05:47:30;;;;;;;2.83;1.50;;;;;;;33.44;30.64;100887.13;5097419;28;20032;-77
2022/07/25 05:49:55;;;;;;;1.45;1.23;;;;;;;31.97;32.51;100899.44;5097146;28;20367;-77
2022/07/25 05:52:21;;;;;;;1.98;1.38;;;;;;;32.67;31.73;100897.00;5115486;28;20031;-77
2022/07/25 05:54:46;;;;;;;2.13;1.27;;;;;;;33.27;31.75;100902.47;5097236;28;20046;-78
2022/07/25 05:57:12;;;;;;;1.40;1.30;;;;;;;32.08;33.33;100905.63;5096337;28;20024;-77
2022/07/25 05:59:37;;;;;;;2.42;1.40;;;;;;;31.52;34.70;100900.28;5115393;28;20130;-77
2022/07/25 06:02:03;;;;;;;1.90;1.30;;;;;;;30.14;37.50;100900.75;5097302;28;20035;-78
2022/07/25 06:04:28;;;;;;;2.65;1.60;;;;;;;30.90;36.30;100908.91;5096575;28;20114;-77
2022/07/25 06:06:54;;;;;;;2.78;1.63;;;;;;;31.80;35.27;100908.38;5096993;28;20034;-77
2022/07/25 06:09:21;;;;;;;2.65;1.30;;;;;;;32.25;34.72;100895.84;5096995;28;20753;-78
2022/07/25 06:11:47;;;;;;;2.67;1.65;;;;;;;30.93;36.71;100900.50;5096371;28;20084;-77
2022/07/25 06:14:13;;;;;;;2.03;1.63;;;;;;;31.19;37.73;100899.00;5096594;28;20031;-77
2022/07/25 06:16:38;;;;;;;2.47;1.10;;;;;;;30.73;37.74;100918.59;5096834;28;20023;-77
2022/07/25 06:19:04;;;;;;;5.03;1.48;;;;;;;30.65;39.36;100912.22;5096151;28;20027;-77
2022/07/25 06:21:29;;;;;;;2.80;1.05;;;;;;;30.76;38.37;100896.75;5095968;28;20040;-77
2022/07/25 06:23:55;;;;;;;4.65;1.20;;;;;;;30.61;39.73;100900.88;5096562;28;20019;-77
2022/07/25 06:26:20;;;;;;;6.30;1.40;;;;;;;30.53;39.82;100909.69;5095764;28;20023;-77
2022/07/25 06:28:46;;;;;;;4.82;1.25;;;;;;;29.36;42.59;100914.88;5114860;28;20023;-77
2022/07/25 06:31:11;;;;;;;9.27;1.50;;;;;;;29.18;43.11;100918.19;5096437;28;20034;-78
2022/07/25 06:33:36;;;;;;;7.25;1.95;;;;;;;30.34;40.98;100915.09;5096141;28;20511;-78
2022/07/25 06:36:04;;;;;;;6.78;2.28;;;;;;;30.81;40.10;100907.06;5096404;28;20463;-78
2022/07/25 06:38:30;;;;;;;9.85;1.45;;;;;;;30.47;40.70;100910.25;5095503;28;20583;-77
2022/07/25 06:40:55;;;;;;;6.47;1.25;;;;;;;30.73;40.62;100915.03;5096504;28;20110;-78
2022/07/25 06:43:20;;;;;;;2.63;1.13;;;;;;;30.86;39.80;100915.59;5096418;28;20407;-78
2022/07/25 06:45:46;;;;;;;4.28;1.30;;;;;;;29.72;42.13;100920.66;5095590;28;20227;-78
2022/07/25 06:48:16;;;;;;;7.32;1.35;;;;;;;29.09;43.48;100916.28;5114698;28;20051;-77
2022/07/25 06:50:42;;;;;;;4.15;1.27;;;;;;;30.60;41.33;100910.81;5096664;28;20040;-78
2022/07/25 06:53:07;;;;;;;4.57;1.30;;;;;;;30.92;39.77;100920.38;5114373;28;20094;-77
2022/07/25 06:55:33;;;;;;;4.47;1.15;;;;;;;30.60;40.89;100908.13;5114164;28;20023;-78
2022/07/25 06:57:58;;;;;;;8.32;1.55;;;;;;;30.12;42.79;100908.97;5096250;28;20032;-78
2022/07/25 07:00:23;;;;;;;3.50;1.30;;;;;;;30.90;40.28;100911.59;5095251;28;20026;-78
2022/07/25 07:02:50;;;;;;;5.35;1.50;;;;;;;30.82;41.08;100919.56;5096006;28;20023;-78
2022/07/25 07:05:16;;;;;;;5.22;1.33;;;;;;;30.90;40.60;100922.41;5095663;28;20016;-78
2022/07/25 07:07:41;;;;;;;2.00;0.90;;;;;;;31.46;39.93;100917.94;5095273;28;20073;-77
2022/07/25 07:10:07;;;;;;;4.43;1.27;;;;;;;29.70;42.83;100926.16;5096080;28;20027;-78
2022/07/25 07:12:32;;;;;;;10.93;1.38;;;;;;;30.85;40.25;100916.59;5095939;28;20118;-78
2022/07/25 07:14:58;;;;;;;3.47;1.50;;;;;;;33.00;36.82;100916.19;5113369;28;20049;-77
2022/07/25 07:17:23;;;;;;;2.63;1.30;;;;;;;32.06;37.72;100918.44;5095427;28;20019;-77
2022/07/25 07:19:48;;;;;;;3.33;1.17;;;;;;;30.52;40.84;100918.78;5095667;28;20081;-77
2022/07/25 07:22:14;;;;;;;4.40;1.10;;;;;;;31.87;38.84;100914.88;5113162;28;20020;-77
2022/07/25 07:24:39;;;;;;;5.00;1.40;;;;;;;29.84;42.23;100919.56;5095763;28;20024;-77
2022/07/25 07:27:04;;;;;;;2.97;1.35;;;;;;;29.93;42.30;100936.75;5095704;28;20028;-77
2022/07/25 07:29:30;;;;;;;4.43;1.02;;;;;;;30.85;41.57;100921.97;5113135;28;20023;-77
2022/07/25 07:31:55;;;;;;;5.00;1.27;;;;;;;30.57;41.99;100924.59;5094840;28;20043;-77
2022/07/25 07:34:20;;;;;;;5.70;1.20;;;;;;;31.20;40.38;100923.19;5095112;28;20387;-78
2022/07/25 07:36:46;;;;;;;8.18;1.38;;;;;;;30.49;42.03;100929.84;5094629;28;20062;-78
2022/07/25 07:39:11;;;;;;;5.63;1.13;;;;;;;29.48;44.29;100946.09;5095402;28;20114;-77
2022/07/25 07:41:37;;;;;;;10.70;1.35;;;;;;;29.43;44.50;100941.13;5112903;28;20067;-77
2022/07/25 07:44:02;;;;;;;6.03;1.45;;;;;;;31.32;40.89;100941.88;5095243;28;20060;-77
2022/07/25 07:46:27;;;;;;;4.28;1.23;;;;;;;30.51;42.87;100938.63;5095081;28;20027;-77
2022/07/25 07:48:53;;;;;;;7.38;1.60;;;;;;;29.28;44.82;100946.00;5094652;28;20058;-78
2022/07/25 07:51:18;;;;;;;4.72;1.60;;;;;;;28.73;45.98;100934.63;5113170;28;20031;-77
2022/07/25 07:56:27;;;;;;;5.55;1.60;;;;;;;32.29;39.58;100930.53;5113002;28;20038;-78
2022/07/25 07:58:52;;;;;;;5.65;1.48;;;;;;;29.83;44.60;100934.00;5095087;28;20652;-78
2022/07/25 08:01:18;;;;;;;6.38;1.27;;;;;;;30.04;43.74;100925.00;5094732;28;20475;-77
2022/07/25 08:03:43;;;;;;;6.65;1.38;;;;;;;30.93;41.59;100927.50;5112465;28;20050;-77
2022/07/25 08:06:09;;;;;;;3.78;1.27;;;;;;;31.21;40.92;100919.47;5094635;28;20035;-77
2022/07/25 08:08:34;;;;;;;7.78;1.63;;;;;;;30.45;42.35;100923.88;5094872;28;20019;-78
2022/07/25 08:10:59;;;;;;;5.60;1.40;;;;;;;33.39;37.80;100921.16;5094322;28;20028;-77
2022/07/25 08:13:32;;;;;;;6.45;1.38;;;;;;;33.39;36.09;100921.16;5112745;28;20028;-77
2022/07/25 08:16:01;;;;;;;5.45;1.50;;;;;;;33.55;35.71;100921.22;5112926;28;20015;-77
2022/07/25 08:18:28;;;;;;;3.25;1.35;;;;;;;33.29;35.84;100919.41;5112064;28;20035;-77
2022/07/25 08:20:54;;;;;;;4.40;1.25;;;;;;;33.51;35.27;100914.44;5094586;28;20474;-77
2022/07/25 08:23:21;;;;;;;3.33;1.10;;;;;;;30.51;39.43;100929.69;5112779;28;20023;-75
2022/07/25 08:25:46;;;;;;;5.25;1.52;;;;;;;32.54;35.87;100922.59;5093505;28;20023;-77
2022/07/25 08:28:13;;;;;;;8.20;1.70;;;;;;;32.64;35.62;100917.09;5094139;28;20034;-77
2022/07/25 08:30:39;;;;;;;7.55;1.50;;;;;;;32.18;35.90;100917.25;5094329;28;20028;-77
2022/07/25 08:33:09;;;;;;;4.47;1.17;;;;;;;32.94;35.10;100921.22;5093473;28;20035;-77
2022/07/25 08:35:34;;;;;;;4.75;1.73;;;;;;;33.27;35.29;100924.13;5094358;28;20076;-77
2022/07/25 08:38:00;;;;;;;7.30;1.42;;;;;;;32.67;35.96;100933.00;5111546;28;20020;-77
2022/07/25 08:40:27;;;;;;;7.18;1.20;;;;;;;33.09;35.81;100937.72;5094089;28;20030;-77
2022/07/25 08:42:54;;;;;;;4.85;1.45;;;;;;;33.74;33.89;100936.31;5093989;28;20054;-77
2022/07/25 08:45:20;;;;;;;6.25;1.67;;;;;;;33.88;33.11;100943.00;5093191;28;20059;-77
2022/07/25 08:47:49;;;;;;;5.65;1.42;;;;;;;33.04;33.49;100944.63;5093985;28;20026;-77
2022/07/25 08:50:26;;;;;;;3.45;1.20;;;;;;;32.64;34.47;100936.03;5112539;28;20020;-77
2022/07/25 08:52:51;;;;;;;5.03;1.48;;;;;;;34.94;31.61;100932.34;5093374;28;20027;-77
2022/07/25 08:55:20;;;;;;;5.20;1.38;;;;;;;35.25;29.71;100935.16;5094170;28;20119;-77
2022/07/25 08:57:51;;;;;;;5.70;1.27;;;;;;;33.98;31.94;100932.84;5093983;28;20032;-77
2022/07/25 09:00:22;;;;;;;4.43;1.20;;;;;;;35.89;29.53;100942.38;5092875;28;20059;-77
2022/07/25 09:02:58;;;;;;;4.28;1.10;;;;;;;34.74;29.01;100931.88;5112237;28;20020;-77
2022/07/25 09:05:24;;;;;;;2.70;1.13;;;;;;;31.63;33.62;100935.22;5093776;28;20031;-77
2022/07/25 09:07:51;;;;;;;5.18;1.17;;;;;;;32.41;33.65;100932.97;5092846;28;20040;-77
2022/07/25 09:10:22;;;;;;;2.97;1.25;;;;;;;32.90;33.25;100922.53;5112119;28;20054;-77
2022/07/25 09:12:55;;;;;;;2.85;1.30;;;;;;;34.15;31.32;100922.03;5094130;28;20024;-78
2022/07/25 09:15:24;;;;;;;2.78;1.40;;;;;;;33.78;32.59;100926.03;5092975;28;20023;-77
2022/07/25 09:17:51;;;;;;;4.20;1.92;;;;;;;33.44;33.67;100927.78;5093946;28;20643;-77
2022/07/25 09:20:17;;;;;;;2.92;1.02;;;;;;;32.90;33.06;100933.38;5093071;28;20051;-77
2022/07/25 09:22:46;;;;;;;3.55;1.13;;;;;;;32.21;35.05;100940.41;5093997;28;20066;-77
2022/07/25 09:25:22;;;;;;;4.45;1.40;;;;;;;31.97;35.31;100948.09;5093851;28;20016;-77
2022/07/25 09:27:48;;;;;;;3.30;1.42;;;;;;;32.07;35.62;100948.03;5092974;28;20031;-77
2022/07/25 09:30:14;;;;;;;4.82;1.42;;;;;;;30.92;36.65;100951.94;5093814;28;20020;-78
2022/07/25 09:32:40;;;;;;;5.85;1.80;;;;;;;31.52;36.52;100959.69;5094162;28;20051;-77
2022/07/25 09:35:05;;;;;;;9.23;2.05;;;;;;;32.20;35.18;100958.47;5111153;28;20040;-77
2022/07/25 09:37:31;;;;;;;5.65;1.83;;;;;;;31.37;36.79;100961.19;5093638;28;20459;-77
2022/07/25 09:39:56;;;;;;;8.68;2.20;;;;;;;32.45;35.73;100973.09;5111831;28;20121;-77
2022/07/25 09:42:26;;;;;;;4.68;1.50;;;;;;;32.65;35.21;100962.94;5092604;28;20076;-77
2022/07/25 09:45:11;;;;;;;2.58;0.80;;;;;;;30.73;32.61;100979.78;5093604;28;20084;-76
2022/07/25 09:47:51;;;;;;;4.57;1.30;;;;;;;33.69;30.07;100981.19;5093649;28;20023;-77
2022/07/25 09:50:17;;;;;;;6.05;1.50;;;;;;;33.23;31.39;100987.72;5093094;28;20456;-77
2022/07/25 09:52:44;;;;;;;5.35;1.48;;;;;;;33.56;31.89;100987.91;5112071;28;20047;-77
2022/07/25 09:55:12;;;;;;;7.85;1.80;;;;;;;36.57;28.27;100988.81;5111639;28;20043;-77
2022/07/25 09:57:39;;;;;;;4.93;1.50;;;;;;;35.39;28.75;100978.94;5115750;28;20422;-77
2022/07/25 10:00:07;;;;;;;8.13;1.60;;;;;;;33.92;31.17;100982.31;5097251;28;20034;-77
2022/07/25 10:03:01;;;;;;;8.13;1.55;;;;;;;35.03;29.58;100979.38;5114617;28;20426;-77
2022/07/25 10:05:58;;;;;;;6.13;1.88;;;;;;;33.93;30.89;100992.13;5096948;28;20020;-77
2022/07/25 10:08:25;;;;;;;6.57;2.20;;;;;;;34.07;30.39;101000.66;5089989;28;20071;-77
2022/07/25 10:10:51;;;;;;;12.25;1.95;;;;;;;34.88;29.57;101001.78;5096223;28;20028;-78
2022/07/25 10:13:29;;;;;;;8.77;1.80;;;;;;;33.17;31.63;100993.78;5097063;28;20034;-77
2022/07/25 10:15:54;;;;;;;7.47;1.90;;;;;;;32.83;32.73;101002.66;5096933;28;20483;-78
2022/07/25 10:18:23;;;;;;;7.25;1.55;;;;;;;32.44;32.41;101003.84;5096219;28;20027;-77
2022/07/25 10:20:52;;;;;;;5.53;1.65;;;;;;;32.64;33.07;101004.53;5096764;28;20034;-77
2022/07/25 10:23:20;;;;;;;4.90;1.90;;;;;;;32.56;33.50;101009.88;5114993;28;20032;-78
2022/07/25 10:25:46;;;;;;;6.25;1.85;;;;;;;31.23;35.40;101006.56;5096820;28;20112;-77
2022/07/25 10:28:17;;;;;;;8.07;2.53;;;;;;;29.91;38.00;101014.13;5096295;28;20190;-77
2022/07/25 10:30:42;;;;;;;6.10;2.20;;;;;;;30.53;36.50;101022.94;5095838;28;20023;-77
2022/07/25 10:33:14;;;;;;;9.18;2.17;;;;;;;30.81;36.09;101020.38;5096478;28;20039;-76
2022/07/25 10:35:40;;;;;;;5.07;2.33;;;;;;;30.89;37.09;101017.81;5096515;28;20058;-77
2022/07/25 10:38:06;;;;;;;11.75;2.08;;;;;;;31.79;35.69;101015.63;5113859;28;20102;-77
2022/07/25 10:40:36;;;;;;;5.40;1.60;;;;;;;29.47;38.75;101033.25;5096152;28;20381;-76
2022/07/25 10:43:18;;;;;;;8.55;2.03;;;;;;;27.88;40.54;101041.84;5095941;28;20073;-77
2022/07/25 10:45:51;;;;;;;4.32;1.85;;;;;;;29.52;38.58;101044.44;5095669;28;20436;-76
2022/07/25 10:48:30;;;;;;;12.82;2.55;;;;;;;28.80;38.94;101048.75;5114307;28;20006;-77
2022/07/25 10:51:05;;;;;;;7.80;2.30;;;;;;;28.65;39.00;101050.91;5114376;28;20378;-75
2022/07/25 10:53:33;;;;;;;5.53;1.90;;;;;;;30.46;36.21;101059.56;5095520;28;20034;-77
2022/07/25 10:56:23;;;;;;;7.82;1.75;;;;;;;31.23;35.16;101047.06;5114471;28;20028;-76
2022/07/25 10:59:00;;;;;;;8.43;2.10;;;;;;;29.06;38.31;101059.16;5094887;28;20373;-77
2022/07/25 11:01:26;;;;;;;9.77;1.90;;;;;;;29.82;38.28;101053.50;5095927;28;20023;-77
2022/07/25 11:03:54;;;;;;;10.07;2.13;;;;;;;31.11;36.13;101035.56;5114163;28;20024;-77
2022/07/25 11:06:30;;;;;;;10.75;2.40;;;;;;;30.69;36.81;101049.34;5094698;28;20047;-77
2022/07/25 11:08:59;;;;;;;7.38;2.35;;;;;;;31.02;36.65;101043.66;5095695;28;20059;-77
2022/07/25 11:11:39;;;;;;;6.82;2.10;;;;;;;28.85;40.23;101057.31;5095398;28;20023;-77
2022/07/25 11:14:20;;;;;;;10.60;2.60;;;;;;;30.74;38.30;101062.41;5094889;28;20046;-77
2022/07/25 11:16:52;;;;;;;7.60;2.38;;;;;;;30.64;38.07;101051.63;5095757;28;20383;-77
2022/07/25 11:19:28;;;;;;;9.90;1.88;;;;;;;30.08;38.66;101056.59;5095608;28;20026;-78
2022/07/25 11:21:56;;;;;;;8.30;1.80;;;;;;;29.79;37.87;101064.56;5094907;28;20033;-77
2022/07/25 11:24:35;;;;;;;6.70;1.85;;;;;;;28.84;39.08;101065.47;5095373;28;20482;-76